Time;durP1;ratioP1;P1;durP2;ratioP2;P2;SDS_P1;SDS_P2;PMS_P1;PMS_P2;Temp;Humidity;BMP_temperature;BMP_pressure;BME280_temperature;BME280_humidity;BME280_pressure;Samples;Min_cycle;Max_cycle;Signal;HPM_P1;HPM_P2
2021/07/18 00:00:43;;;;;;;15.80;12.05;;;19.50;99.90;;;;;;5048856;28;20029;-75
2021/07/18 00:03:08;;;;;;;18.00;12.35;;;19.50;99.90;;;;;;5054584;28;20074;-75
2021/07/18 00:05:42;;;;;;;13.65;12.07;;;19.50;99.90;;;;;;5052934;28;20025;-74
2021/07/18 00:08:07;;;;;;;13.63;12.32;;;19.40;99.90;;;;;;5036646;28;20394;-74
2021/07/18 00:10:33;;;;;;;13.63;12.25;;;19.40;99.90;;;;;;5058580;28;20029;-73
2021/07/18 00:13:01;;;;;;;15.65;13.77;;;19.40;99.90;;;;;;5073440;28;20051;-74
2021/07/18 00:15:27;;;;;;;19.13;11.45;;;19.30;99.90;;;;;;5055557;28;20052;-73
2021/07/18 00:17:52;;;;;;;14.23;12.48;;;19.30;99.90;;;;;;5070058;28;20048;-73
2021/07/18 00:20:18;;;;;;;12.63;11.18;;;19.20;99.90;;;;;;5067917;28;20024;-73
2021/07/18 00:22:44;;;;;;;13.90;11.18;;;19.20;99.90;;;;;;5054403;28;20048;-74
2021/07/18 00:25:11;;;;;;;15.95;11.85;;;19.20;99.90;;;;;;5068751;28;20401;-75
2021/07/18 00:27:37;;;;;;;12.88;11.63;;;19.20;99.90;;;;;;5055326;28;20036;-74
2021/07/18 00:30:06;;;;;;;12.57;11.18;;;19.20;99.90;;;;;;5073978;28;20028;-73
2021/07/18 00:32:33;;;;;;;14.60;11.90;;;19.10;99.90;;;;;;5078797;28;20024;-72
2021/07/18 00:34:58;;;;;;;13.52;10.00;;;19.20;99.90;;;;;;5056506;28;20025;-73
2021/07/18 00:37:24;;;;;;;14.10;10.75;;;19.10;99.90;;;;;;5058277;28;20023;-74
2021/07/18 00:39:49;;;;;;;17.75;11.60;;;19.10;99.90;;;;;;5077759;28;20055;-74
2021/07/18 00:42:19;;;;;;;14.23;10.80;;;19.00;99.90;;;;;;5073715;28;20524;-72
2021/07/18 00:44:45;;;;;;;12.10;9.82;;;19.00;99.90;;;;;;5073159;28;20026;-73
2021/07/18 00:47:12;;;;;;;14.73;10.82;;;18.90;99.90;;;;;;5073063;28;20024;-73
2021/07/18 00:49:37;;;;;;;13.82;10.52;;;18.90;99.90;;;;;;5055016;28;20506;-74
2021/07/18 00:52:04;;;;;;;14.68;11.65;;;18.90;99.90;;;;;;5073025;28;20052;-74
2021/07/18 00:54:30;;;;;;;12.38;9.40;;;18.80;99.90;;;;;;5076085;28;20028;-74
2021/07/18 00:56:57;;;;;;;10.85;9.68;;;18.80;99.90;;;;;;5073482;28;20029;-74
2021/07/18 00:59:24;;;;;;;12.48;9.85;;;18.80;99.90;;;;;;5072947;28;20020;-74
2021/07/18 01:01:51;;;;;;;11.18;9.35;;;18.80;99.90;;;;;;5072562;28;20028;-74
2021/07/18 01:04:17;;;;;;;11.48;9.57;;;18.80;99.90;;;;;;5072291;28;20397;-75
2021/07/18 01:06:42;;;;;;;10.27;8.73;;;18.80;99.90;;;;;;5054265;28;20020;-74
2021/07/18 01:09:08;;;;;;;9.45;8.45;;;18.80;99.90;;;;;;5072247;28;20026;-74
2021/07/18 01:11:33;;;;;;;12.20;9.23;;;18.70;99.90;;;;;;5070861;28;20118;-74
2021/07/18 01:13:59;;;;;;;12.23;8.50;;;18.70;99.90;;;;;;5059397;28;20051;-74
2021/07/18 01:16:25;;;;;;;8.52;7.60;;;18.70;99.90;;;;;;5058108;28;20111;-73
2021/07/18 01:18:51;;;;;;;12.40;8.60;;;18.70;99.90;;;;;;5052024;28;20486;-72
2021/07/18 01:21:21;;;;;;;7.93;7.05;;;18.60;99.90;;;;;;5052099;28;20039;-73
2021/07/18 01:23:48;;;;;;;9.63;6.95;;;18.60;99.90;;;;;;5046145;28;20024;-73
2021/07/18 01:26:14;;;;;;;9.45;7.55;;;18.60;99.90;;;;;;5072612;28;20386;-74
2021/07/18 01:28:39;;;;;;;7.95;6.88;;;18.50;99.90;;;;;;5072108;28;20029;-74
2021/07/18 01:31:06;;;;;;;7.60;6.80;;;18.50;99.90;;;;;;5072346;28;20029;-73
2021/07/18 01:33:32;;;;;;;9.60;7.57;;;18.40;99.90;;;;;;5054297;28;20017;-74
2021/07/18 01:35:58;;;;;;;8.38;7.05;;;18.40;99.90;;;;;;5070479;28;20492;-73
2021/07/18 01:38:23;;;;;;;11.07;7.65;;;18.40;99.90;;;;;;5072148;28;20077;-74
2021/07/18 01:40:49;;;;;;;10.45;7.07;;;18.40;99.90;;;;;;5072114;28;20068;-74
2021/07/18 01:43:16;;;;;;;7.88;6.75;;;18.30;99.90;;;;;;5072153;28;20024;-74
2021/07/18 01:45:42;;;;;;;9.35;7.22;;;18.30;99.90;;;;;;5072138;28;20077;-75
2021/07/18 01:48:08;;;;;;;7.07;6.47;;;18.20;99.90;;;;;;5071760;28;20028;-74
2021/07/18 01:50:34;;;;;;;8.95;6.55;;;18.20;99.90;;;;;;5071736;28;20424;-74
2021/07/18 01:53:00;;;;;;;7.93;6.75;;;18.10;99.90;;;;;;5071648;28;20017;-74
2021/07/18 01:55:26;;;;;;;6.82;5.97;;;18.10;99.90;;;;;;5071751;28;20032;-74
2021/07/18 01:57:52;;;;;;;13.18;6.35;;;18.10;99.90;;;;;;5070323;28;20024;-73
2021/07/18 02:00:18;;;;;;;7.03;6.20;;;18.00;99.90;;;;;;5071590;28;20029;-73
2021/07/18 02:02:45;;;;;;;7.50;5.85;;;17.90;99.90;;;;;;5071552;28;20466;-73
2021/07/18 02:05:14;;;;;;;6.88;6.15;;;17.80;99.90;;;;;;5071463;28;20029;-73
2021/07/18 02:07:41;;;;;;;6.25;5.70;;;17.80;99.90;;;;;;5071838;28;20048;-73
2021/07/18 02:10:07;;;;;;;6.55;5.05;;;17.70;99.90;;;;;;5071997;28;20029;-74
2021/07/18 02:12:33;;;;;;;7.20;5.18;;;17.70;99.90;;;;;;5058592;28;20021;-73
2021/07/18 02:14:59;;;;;;;6.25;4.93;;;17.80;99.90;;;;;;5059495;28;20025;-74
2021/07/18 02:17:24;;;;;;;7.05;5.15;;;17.70;99.90;;;;;;5051430;28;20025;-74
2021/07/18 02:19:50;;;;;;;8.00;5.13;;;17.70;99.90;;;;;;5051696;28;20028;-72
2021/07/18 02:22:25;;;;;;;6.88;5.82;;;17.60;99.90;;;;;;5052129;28;20478;-73
2021/07/18 02:24:51;;;;;;;7.57;5.05;;;17.50;99.90;;;;;;5033842;28;20078;-73
2021/07/18 02:27:16;;;;;;;5.65;4.95;;;17.60;99.90;;;;;;5051504;28;20454;-73
2021/07/18 02:29:42;;;;;;;6.07;4.68;;;17.60;99.90;;;;;;5035967;28;20044;-73
2021/07/18 02:32:07;;;;;;;7.18;5.30;;;17.60;99.90;;;;;;5055435;28;20032;-73
2021/07/18 02:34:33;;;;;;;9.75;5.38;;;17.60;99.90;;;;;;5055467;28;20166;-73
2021/07/18 02:36:59;;;;;;;6.95;5.38;;;17.50;99.90;;;;;;5037286;28;20033;-73
2021/07/18 02:39:24;;;;;;;6.13;5.40;;;17.50;99.90;;;;;;5037186;28;20067;-73
2021/07/18 02:41:50;;;;;;;8.73;5.13;;;17.40;99.90;;;;;;5055319;28;20462;-72
2021/07/18 02:44:16;;;;;;;6.50;5.75;;;17.40;99.90;;;;;;5057912;28;20025;-72
2021/07/18 02:46:41;;;;;;;7.88;6.25;;;17.30;99.90;;;;;;5060192;28;20394;-72
2021/07/18 02:49:07;;;;;;;8.93;6.30;;;17.30;99.90;;;;;;5055144;28;20075;-73
2021/07/18 02:51:33;;;;;;;6.07;4.70;;;17.30;99.90;;;;;;5055347;28;20052;-74
2021/07/18 02:53:59;;;;;;;6.50;4.70;;;17.20;99.90;;;;;;5054950;28;20036;-72
2021/07/18 02:56:24;;;;;;;6.63;5.32;;;17.20;99.90;;;;;;5037431;28;20031;-74
2021/07/18 02:58:50;;;;;;;6.57;5.03;;;17.20;99.90;;;;;;5055487;28;20037;-73
2021/07/18 03:01:16;;;;;;;6.28;5.50;;;17.10;99.90;;;;;;5055661;28;20032;-73
2021/07/18 03:03:41;;;;;;;8.40;5.32;;;17.10;99.90;;;;;;5055761;28;20021;-73
2021/07/18 03:06:07;;;;;;;6.93;5.60;;;17.10;99.90;;;;;;5055326;28;20021;-74
2021/07/18 03:08:32;;;;;;;12.93;7.38;;;17.10;99.90;;;;;;5059824;28;20047;-74
2021/07/18 03:10:58;;;;;;;7.40;5.15;;;17.00;99.90;;;;;;5065527;28;20037;-73
2021/07/18 03:13:24;;;;;;;9.05;5.35;;;16.90;99.90;;;;;;5078912;28;20028;-73
2021/07/18 03:15:49;;;;;;;7.35;5.60;;;16.90;99.90;;;;;;5088445;28;20103;-73
2021/07/18 03:18:15;;;;;;;6.38;5.63;;;16.90;99.90;;;;;;5084836;28;20023;-74
2021/07/18 03:20:40;;;;;;;7.13;6.40;;;16.80;99.90;;;;;;5085134;28;20470;-74
2021/07/18 03:23:06;;;;;;;12.18;7.30;;;16.80;99.90;;;;;;5086427;28;20054;-74
2021/07/18 03:25:32;;;;;;;10.63;6.72;;;16.80;99.90;;;;;;5076333;28;20051;-74
2021/07/18 03:27:57;;;;;;;8.15;5.65;;;16.80;99.90;;;;;;5076450;28;20063;-74
2021/07/18 03:30:23;;;;;;;7.05;6.35;;;16.80;99.90;;;;;;5075794;28;20035;-74
2021/07/18 03:32:49;;;;;;;8.90;5.78;;;16.80;99.90;;;;;;5075808;28;20043;-74
2021/07/18 03:35:15;;;;;;;8.70;6.43;;;16.90;99.90;;;;;;5041006;28;20417;-74
2021/07/18 03:37:41;;;;;;;6.82;5.60;;;17.00;99.90;;;;;;5074477;28;20055;-73
2021/07/18 03:40:10;;;;;;;8.60;6.00;;;17.00;99.90;;;;;;5073922;28;20027;-73
2021/07/18 03:42:36;;;;;;;6.38;4.75;;;17.00;99.90;;;;;;5073817;28;20095;-73
2021/07/18 03:45:03;;;;;;;8.23;5.22;;;17.00;99.90;;;;;;5074663;28;20029;-73
2021/07/18 03:47:28;;;;;;;10.55;5.20;;;17.00;99.90;;;;;;5075896;28;20449;-73
2021/07/18 03:49:54;;;;;;;5.47;4.97;;;17.00;99.90;;;;;;5075279;28;20116;-73
2021/07/18 03:52:19;;;;;;;5.57;5.07;;;17.00;99.90;;;;;;5075956;28;20051;-73
2021/07/18 03:54:45;;;;;;;5.90;4.70;;;16.90;99.90;;;;;;5089995;22;20536;-76
2021/07/18 03:57:10;;;;;;;9.95;5.95;;;16.90;99.90;;;;;;5062770;28;20032;-76
2021/07/18 03:59:36;;;;;;;6.18;5.00;;;16.90;99.90;;;;;;5056204;28;20017;-77
2021/07/18 04:02:01;;;;;;;7.05;5.10;;;16.90;99.90;;;;;;5072127;28;20031;-77
2021/07/18 04:04:27;;;;;;;9.88;4.80;;;16.90;99.90;;;;;;5073769;28;20017;-76
2021/07/18 04:06:53;;;;;;;6.13;5.50;;;17.00;99.90;;;;;;5073349;28;20470;-77
2021/07/18 04:09:18;;;;;;;4.78;4.28;;;17.00;99.90;;;;;;5055145;28;20074;-77
2021/07/18 04:11:44;;;;;;;6.00;4.30;;;17.00;99.90;;;;;;5086308;28;20036;-77
2021/07/18 04:14:10;;;;;;;9.65;4.60;;;17.10;99.90;;;;;;5092532;28;20081;-77
2021/07/18 04:16:35;;;;;;;5.25;3.70;;;17.10;99.90;;;;;;5073960;28;20455;-77
2021/07/18 04:19:01;;;;;;;5.15;3.72;;;17.20;99.90;;;;;;5073401;28;20535;-77
2021/07/18 04:21:26;;;;;;;4.82;3.67;;;17.20;99.90;;;;;;5055397;28;20439;-76
2021/07/18 04:23:52;;;;;;;5.30;3.88;;;17.30;99.90;;;;;;5055322;28;20029;-77
2021/07/18 04:26:18;;;;;;;6.22;4.13;;;17.30;99.90;;;;;;5073001;28;20389;-76
2021/07/18 04:28:43;;;;;;;7.82;4.00;;;17.40;99.90;;;;;;5035769;28;20021;-78
2021/07/18 04:31:09;;;;;;;5.95;3.97;;;17.40;99.90;;;;;;5053098;28;20029;-77
2021/07/18 04:33:35;;;;;;;5.15;4.00;;;17.40;99.90;;;;;;5053206;28;20100;-78
2021/07/18 04:36:00;;;;;;;5.85;3.88;;;17.40;99.90;;;;;;5054065;28;20025;-76
2021/07/18 04:38:26;;;;;;;7.45;4.45;;;17.50;99.90;;;;;;5035196;28;20032;-77
2021/07/18 04:40:51;;;;;;;5.57;3.80;;;17.60;99.90;;;;;;5053141;28;20402;-77
2021/07/18 04:43:17;;;;;;;9.18;4.63;;;17.60;99.90;;;;;;5036365;28;20216;-77
2021/07/18 04:45:43;;;;;;;4.05;3.65;;;17.70;99.90;;;;;;5053588;28;20032;-78
2021/07/18 04:48:09;;;;;;;5.15;4.28;;;17.80;99.90;;;;;;5053860;28;20032;-77
2021/07/18 04:50:34;;;;;;;5.55;3.42;;;17.80;99.90;;;;;;5052688;28;20112;-77
2021/07/18 04:53:00;;;;;;;3.92;3.10;;;17.80;99.90;;;;;;5053249;28;20100;-77
2021/07/18 04:55:26;;;;;;;5.65;3.80;;;18.00;99.90;;;;;;5051808;28;20029;-77
2021/07/18 04:57:51;;;;;;;4.72;3.17;;;18.30;99.90;;;;;;5035038;28;20056;-78
2021/07/18 05:00:22;;;;;;;4.18;3.45;;;18.60;99.90;;;;;;5035016;28;20025;-78
2021/07/18 05:02:48;;;;;;;6.53;3.72;;;18.80;99.90;;;;;;5036588;28;20112;-77
2021/07/18 05:05:15;;;;;;;8.50;3.78;;;18.80;99.90;;;;;;5088186;28;20032;-79
2021/07/18 05:07:51;;;;;;;4.07;3.13;;;19.00;99.90;;;;;;5071050;28;20032;-76
2021/07/18 05:10:18;;;;;;;5.90;3.17;;;19.00;99.90;;;;;;5092627;28;20031;-77
2021/07/18 05:12:45;;;;;;;4.47;2.70;;;19.30;99.90;;;;;;5092473;28;20076;-76
2021/07/18 05:15:11;;;;;;;7.03;3.28;;;19.50;99.90;;;;;;5074272;28;20047;-77
2021/07/18 05:17:37;;;;;;;4.45;2.60;;;19.80;99.90;;;;;;5092426;28;20085;-76
2021/07/18 05:20:04;;;;;;;6.80;2.65;;;20.60;99.90;;;;;;5074200;28;20115;-76
2021/07/18 05:22:30;;;;;;;5.03;3.63;;;20.70;99.90;;;;;;5093258;28;20602;-76
2021/07/18 05:24:55;;;;;;;5.20;2.40;;;20.50;99.90;;;;;;5092275;28;20152;-77
2021/07/18 05:27:21;;;;;;;3.00;2.15;;;20.80;99.90;;;;;;5074558;28;20114;-77
2021/07/18 05:29:47;;;;;;;2.88;1.98;;;21.00;99.90;;;;;;5074479;28;20035;-78
2021/07/18 05:32:12;;;;;;;2.70;1.95;;;21.20;99.90;;;;;;5074188;28;20389;-77
2021/07/18 05:34:38;;;;;;;3.72;2.28;;;21.20;99.90;;;;;;5075210;28;20032;-76
2021/07/18 05:37:05;;;;;;;2.00;1.80;;;21.30;99.90;;;;;;5092463;28;20026;-77
2021/07/18 05:39:30;;;;;;;3.38;2.00;;;21.10;99.90;;;;;;5092938;28;20541;-77
2021/07/18 05:41:57;;;;;;;2.95;1.50;;;21.20;99.90;;;;;;5092626;28;20028;-77
2021/07/18 05:44:22;;;;;;;1.77;1.60;;;21.30;99.90;;;;;;5074424;28;20027;-78
2021/07/18 05:46:48;;;;;;;4.15;1.42;;;21.30;99.90;;;;;;5092787;28;20496;-78
2021/07/18 05:49:13;;;;;;;3.88;1.67;;;21.70;99.90;;;;;;5092487;28;20447;-78
2021/07/18 05:51:39;;;;;;;2.72;1.67;;;21.60;99.90;;;;;;5092849;28;20111;-78
2021/07/18 05:54:04;;;;;;;3.90;1.55;;;21.10;99.90;;;;;;5074489;28;20023;-78
2021/07/18 05:56:30;;;;;;;4.05;1.58;;;21.50;99.90;;;;;;5092491;28;20024;-78
2021/07/18 05:58:55;;;;;;;3.03;1.80;;;20.90;99.90;;;;;;5093072;28;20031;-77
2021/07/18 06:01:21;;;;;;;2.10;1.30;;;21.30;99.90;;;;;;5092509;28;20024;-77
2021/07/18 06:03:46;;;;;;;3.83;1.40;;;21.10;99.90;;;;;;5094938;28;20084;-77
2021/07/18 06:06:12;;;;;;;3.35;1.58;;;21.30;99.90;;;;;;5088307;28;20024;-78
2021/07/18 06:08:37;;;;;;;4.65;1.55;;;21.60;99.90;;;;;;5085280;28;20049;-78
2021/07/18 06:11:03;;;;;;;1.98;1.40;;;21.70;99.90;;;;;;5097968;28;20028;-77
2021/07/18 06:13:28;;;;;;;2.35;1.48;;;21.80;99.90;;;;;;5079068;28;20558;-77
2021/07/18 06:15:54;;;;;;;1.85;1.30;;;21.70;99.90;;;;;;5060155;28;20021;-77
2021/07/18 06:18:19;;;;;;;3.88;1.58;;;21.70;99.90;;;;;;5055758;28;20024;-77
2021/07/18 06:20:45;;;;;;;3.58;1.27;;;21.70;99.90;;;;;;5056229;28;20047;-76
2021/07/18 06:23:10;;;;;;;3.28;1.60;;;21.00;99.90;;;;;;5037623;28;20509;-76
2021/07/18 06:25:36;;;;;;;2.70;1.40;;;20.80;99.90;;;;;;5055287;28;20483;-76
2021/07/18 06:28:02;;;;;;;1.77;1.42;;;20.80;99.90;;;;;;5055765;28;20389;-77
2021/07/18 06:30:27;;;;;;;4.50;1.65;;;20.80;99.90;;;;;;5056659;28;20425;-77
2021/07/18 06:32:53;;;;;;;1.95;1.75;;;20.80;99.90;;;;;;5056433;28;20021;-77
2021/07/18 06:35:18;;;;;;;3.08;1.60;;;20.00;99.90;;;;;;5056463;28;20024;-77
2021/07/18 06:37:44;;;;;;;3.72;1.98;;;19.80;99.90;;;;;;5056556;28;20025;-76
2021/07/18 06:40:10;;;;;;;3.15;1.95;;;19.70;99.90;;;;;;5054608;28;20051;-76
2021/07/18 06:42:36;;;;;;;2.50;1.67;;;19.90;99.90;;;;;;5054796;28;20444;-76
2021/07/18 06:45:03;;;;;;;1.65;1.30;;;20.10;99.90;;;;;;5055730;28;20025;-77
2021/07/18 06:47:29;;;;;;;1.70;1.60;;;20.10;99.90;;;;;;5055380;28;20029;-77
2021/07/18 06:49:57;;;;;;;2.88;1.70;;;19.90;99.90;;;;;;5055557;28;20025;-77
2021/07/18 06:52:23;;;;;;;3.78;1.45;;;19.80;99.90;;;;;;5056891;28;20524;-77
2021/07/18 06:54:49;;;;;;;3.28;1.45;;;19.70;99.90;;;;;;5057055;28;20041;-77
2021/07/18 06:57:15;;;;;;;2.22;1.60;;;19.90;99.90;;;;;;5057220;28;20075;-77
2021/07/18 06:59:40;;;;;;;5.13;2.55;;;19.80;99.90;;;;;;5055909;28;20116;-78
2021/07/18 07:02:06;;;;;;;3.70;2.45;;;19.90;99.90;;;;;;5055354;28;20119;-76
2021/07/18 07:04:31;;;;;;;2.60;1.60;;;19.80;99.90;;;;;;5066246;28;20040;-76
2021/07/18 07:06:57;;;;;;;2.67;1.63;;;19.90;99.90;;;;;;5087979;28;20441;-77
2021/07/18 07:09:22;;;;;;;2.50;2.10;;;19.80;99.90;;;;;;5077817;28;20025;-77
2021/07/18 07:11:48;;;;;;;2.70;1.50;;;19.90;99.90;;;;;;5095529;28;20031;-76
2021/07/18 07:14:14;;;;;;;6.22;1.70;;;19.90;99.90;;;;;;5095364;28;20100;-78
2021/07/18 07:16:39;;;;;;;5.05;1.55;;;20.30;99.90;;;;;;5096440;28;20466;-77
2021/07/18 07:19:05;;;;;;;4.55;1.67;;;20.20;99.90;;;;;;5095085;28;20024;-78
2021/07/18 07:21:31;;;;;;;3.55;1.40;;;20.10;99.90;;;;;;5095559;28;20536;-77
2021/07/18 07:23:56;;;;;;;4.60;1.48;;;20.60;99.90;;;;;;5096722;28;20024;-77
2021/07/18 07:26:22;;;;;;;6.43;1.52;;;20.50;99.90;;;;;;5079135;28;20115;-77
2021/07/18 07:28:48;;;;;;;3.72;1.67;;;20.60;99.90;;;;;;5095907;28;20020;-77
2021/07/18 07:31:13;;;;;;;4.65;1.60;;;20.50;99.90;;;;;;5077551;28;20020;-77
2021/07/18 07:33:39;;;;;;;2.92;1.75;;;20.90;99.90;;;;;;5076994;28;20112;-77
2021/07/18 07:36:05;;;;;;;1.75;1.63;;;21.10;99.90;;;;;;5083671;28;20099;-78
2021/07/18 07:38:32;;;;;;;1.77;1.60;;;20.80;99.90;;;;;;5065040;28;20053;-77
2021/07/18 07:40:58;;;;;;;1.30;1.08;;;21.00;99.90;;;;;;5069034;28;20024;-79
2021/07/18 07:43:24;;;;;;;2.05;1.73;;;20.90;99.90;;;;;;5054470;28;20056;-78
2021/07/18 07:45:50;;;;;;;3.10;1.77;;;21.10;99.90;;;;;;5080730;28;20073;-78
2021/07/18 07:48:16;;;;;;;7.03;2.45;;;21.20;99.90;;;;;;5082662;28;20043;-81
2021/07/18 07:50:42;;;;;;;2.40;1.45;;;21.10;99.90;;;;;;5088784;28;20025;-77
2021/07/18 07:53:08;;;;;;;5.68;1.95;;;21.00;99.90;;;;;;5075166;28;20381;-77
2021/07/18 07:55:34;;;;;;;2.28;1.67;;;21.40;99.90;;;;;;5063937;28;20045;-76
2021/07/18 07:58:00;;;;;;;4.07;2.47;;;21.10;99.90;;;;;;5079046;28;20023;-78
2021/07/18 08:00:26;;;;;;;3.05;2.13;;;20.90;99.90;;;;;;5076892;28;20027;-78
2021/07/18 08:02:52;;;;;;;4.32;1.90;;;21.10;99.90;;;;;;5089398;28;20024;-77
2021/07/18 08:05:19;;;;;;;4.30;2.05;;;21.20;99.90;;;;;;5074338;28;20028;-77
2021/07/18 08:07:45;;;;;;;3.50;2.25;;;21.80;99.90;;;;;;5073552;28;20033;-76
2021/07/18 08:10:18;;;;;;;4.38;1.73;;;21.90;99.90;;;;;;5074008;28;20078;-77
2021/07/18 08:12:44;;;;;;;4.07;1.67;;;21.80;99.90;;;;;;5059926;28;20043;-78
2021/07/18 08:15:12;;;;;;;2.78;1.80;;;22.10;99.90;;;;;;5077824;28;20028;-76
2021/07/18 08:17:38;;;;;;;1.90;1.70;;;21.90;99.90;;;;;;5077592;28;20054;-79
2021/07/18 08:20:06;;;;;;;9.13;1.70;;;22.10;99.90;;;;;;5077529;28;20030;-77
2021/07/18 08:22:32;;;;;;;2.70;1.80;;;22.40;99.90;;;;;;5096021;28;20043;-79
2021/07/18 08:24:58;;;;;;;4.35;1.58;;;21.90;99.90;;;;;;5095407;28;20478;-78
2021/07/18 08:27:23;;;;;;;2.88;1.58;;;21.90;99.90;;;;;;5092995;28;20030;-78
2021/07/18 08:29:49;;;;;;;3.72;1.70;;;21.70;99.90;;;;;;5093931;28;20108;-78
2021/07/18 08:32:14;;;;;;;3.85;1.80;;;21.80;99.90;;;;;;5070079;28;20071;-79
2021/07/18 08:34:40;;;;;;;5.05;1.85;;;22.00;99.90;;;;;;5056318;28;20448;-78
2021/07/18 08:37:05;;;;;;;2.67;1.42;;;21.90;99.90;;;;;;5074367;28;20492;-76
2021/07/18 08:39:31;;;;;;;3.60;1.67;;;21.90;99.90;;;;;;5079467;28;20020;-76
2021/07/18 08:41:57;;;;;;;3.88;2.00;;;22.10;99.90;;;;;;5084702;28;20032;-77
2021/07/18 08:44:23;;;;;;;3.30;1.40;;;22.70;99.90;;;;;;5094521;28;20024;-80
2021/07/18 08:46:49;;;;;;;5.45;2.20;;;22.70;99.90;;;;;;5077170;28;20035;-79
2021/07/18 08:49:15;;;;;;;4.07;2.45;;;22.70;99.90;;;;;;5092928;28;20078;-79
2021/07/18 08:51:41;;;;;;;6.18;2.35;;;22.70;99.90;;;;;;5065846;28;20035;-78
2021/07/18 08:54:07;;;;;;;3.38;1.92;;;22.70;99.90;;;;;;5075628;28;20111;-78
2021/07/18 08:56:33;;;;;;;2.58;1.60;;;22.90;99.90;;;;;;5093461;28;20043;-77
2021/07/18 08:59:10;;;;;;;3.03;2.05;;;23.20;99.90;;;;;;5116701;27;1220436;-79
2021/07/18 09:01:41;;;;;;;5.18;2.13;;;23.00;99.90;;;;;;5132100;27;20046;-78
2021/07/18 09:04:07;;;;;;;4.65;1.90;;;22.80;99.90;;;;;;5124895;28;20174;-80
2021/07/18 09:06:45;;;;;;;3.33;2.13;;;23.20;99.90;;;;;;5110893;28;20121;-78
2021/07/18 09:09:16;;;;;;;3.00;1.95;;;23.40;99.90;;;;;;5111398;28;20459;-77
2021/07/18 09:11:44;;;;;;;4.18;1.80;;;23.60;99.90;;;;;;5111942;28;20024;-78
2021/07/18 09:14:12;;;;;;;5.88;1.77;;;23.00;99.90;;;;;;5111152;28;20020;-78
2021/07/18 09:16:42;;;;;;;2.85;1.92;;;22.90;99.90;;;;;;5113299;28;20053;-77
2021/07/18 09:19:16;;;;;;;2.47;1.77;;;23.10;99.90;;;;;;5110230;28;20024;-77
2021/07/18 09:22:08;;;;;;;4.13;2.10;;;23.50;99.90;;;;;;5100365;28;20383;-78
2021/07/18 09:24:59;;;;;;;4.45;2.03;;;23.00;99.90;;;;;;5089426;28;20032;-78
2021/07/18 09:27:29;;;;;;;3.55;2.10;;;23.40;99.90;;;;;;5110636;28;20501;-77
2021/07/18 09:30:12;;;;;;;3.53;2.10;;;23.80;99.90;;;;;;5112162;28;20058;-79
2021/07/18 09:32:45;;;;;;;5.47;2.10;;;24.00;99.90;;;;;;5115180;28;20032;-77
2021/07/18 09:35:13;;;;;;;4.82;1.90;;;23.60;99.90;;;;;;5110862;28;20016;-77
2021/07/18 09:37:44;;;;;;;4.95;2.03;;;23.60;99.90;;;;;;5110177;28;20165;-77
2021/07/18 09:40:19;;;;;;;5.88;1.88;;;23.70;99.90;;;;;;5110379;28;20016;-78
2021/07/18 09:43:00;;;;;;;4.05;2.45;;;23.80;99.90;;;;;;5110062;28;20049;-76
2021/07/18 09:45:26;;;;;;;;;;;23.60;99.90;;;;;;5113400;28;20016;-77
2021/07/18 09:48:04;;;;;;;2.60;1.70;;;23.60;99.90;;;;;;5110177;28;19919;-76
2021/07/18 09:50:33;;;;;;;5.63;2.05;;;24.00;99.90;;;;;;5105307;28;20046;-77
2021/07/18 09:53:15;;;;;;;5.57;1.77;;;24.20;99.90;;;;;;5110184;28;20063;-77
2021/07/18 09:56:04;;;;;;;7.65;1.80;;;24.10;99.90;;;;;;5107703;28;20533;-77
2021/07/18 09:58:30;;;;;;;4.65;1.73;;;24.10;99.90;;;;;;5109315;28;20028;-77
2021/07/18 10:00:59;;;;;;;3.50;2.20;;;23.70;99.90;;;;;;5107665;28;20479;-77
2021/07/18 10:03:27;;;;;;;4.10;1.50;;;23.40;99.90;;;;;;5107992;28;20313;-77
2021/07/18 10:06:10;;;;;;;8.80;2.30;;;23.30;99.90;;;;;;5109770;28;20088;-78
2021/07/18 10:08:46;;;;;;;2.83;1.70;;;23.80;99.90;;;;;;5105093;28;20118;-78
2021/07/18 10:11:23;;;;;;;3.20;1.67;;;23.40;99.90;;;;;;5094403;28;20024;-77
2021/07/18 10:13:49;;;;;;;7.78;2.25;;;23.60;99.90;;;;;;5096196;28;20024;-79
2021/07/18 10:16:17;;;;;;;1.80;1.42;;;23.40;99.90;;;;;;5094117;28;20024;-77
2021/07/18 10:18:45;;;;;;;9.93;2.25;;;23.80;99.90;;;;;;5095542;28;20483;-78
2021/07/18 10:21:13;;;;;;;5.97;1.77;;;24.20;99.90;;;;;;5096836;28;20033;-78
2021/07/18 10:23:41;;;;;;;4.97;2.63;;;24.60;99.90;;;;;;5094900;28;20020;-79
2021/07/18 10:26:07;;;;;;;2.50;1.60;;;24.50;99.90;;;;;;5095134;28;20035;-80
2021/07/18 10:28:35;;;;;;;4.55;1.88;;;24.40;99.90;;;;;;5096534;28;20024;-78
2021/07/18 10:31:10;;;;;;;2.38;1.90;;;24.60;99.90;;;;;;5096160;28;20028;-77
2021/07/18 10:33:37;;;;;;;4.63;1.90;;;24.70;99.90;;;;;;5095231;28;20138;-78
2021/07/18 10:36:03;;;;;;;4.85;1.83;;;24.80;99.90;;;;;;5094201;28;20081;-79
2021/07/18 10:38:34;;;;;;;5.22;2.58;;;25.00;99.90;;;;;;5094435;28;20024;-79
2021/07/18 10:41:00;;;;;;;2.80;1.65;;;25.10;99.90;;;;;;5095767;28;20031;-78
2021/07/18 10:43:39;;;;;;;3.47;2.33;;;24.70;99.90;;;;;;5095488;28;20438;-77
2021/07/18 10:46:09;;;;;;;5.43;1.88;;;24.60;99.90;;;;;;5094732;28;20044;-78
2021/07/18 10:48:47;;;;;;;3.58;2.13;;;24.90;99.90;;;;;;5093768;28;20483;-77
2021/07/18 10:51:16;;;;;;;3.92;1.98;;;25.10;99.90;;;;;;5093771;28;20579;-78
2021/07/18 10:53:42;;;;;;;3.88;2.05;;;25.40;99.90;;;;;;5095198;28;20020;-77
2021/07/18 10:56:08;;;;;;;3.97;2.22;;;25.30;99.90;;;;;;5093879;28;20024;-78
2021/07/18 10:58:39;;;;;;;4.30;1.73;;;25.30;99.90;;;;;;5093440;28;20039;-77
2021/07/18 11:01:10;;;;;;;7.07;1.90;;;25.30;99.90;;;;;;5095094;28;20031;-77
2021/07/18 11:03:41;;;;;;;3.53;1.90;;;25.00;99.90;;;;;;5094741;28;20255;-78
2021/07/18 11:06:30;;;;;;;6.15;2.80;;;24.70;99.90;;;;;;5094804;28;20464;-77
2021/07/18 11:09:18;;;;;;;2.10;1.60;;;25.00;99.90;;;;;;5095270;28;20415;-78
2021/07/18 11:11:55;;;;;;;3.33;2.00;;;25.20;99.90;;;;;;5095357;28;20021;-78
2021/07/18 11:14:31;;;;;;;2.47;1.50;;;25.20;99.90;;;;;;5098131;28;20020;-79
2021/07/18 11:16:59;;;;;;;4.28;2.03;;;25.30;99.90;;;;;;5094142;28;20122;-78
2021/07/18 11:19:37;;;;;;;2.55;1.75;;;25.20;99.90;;;;;;5094541;28;20022;-79
2021/07/18 11:22:07;;;;;;;4.25;1.92;;;25.20;99.90;;;;;;5094052;28;20119;-77
2021/07/18 11:24:53;;;;;;;3.58;1.60;;;24.90;99.90;;;;;;5094750;28;20016;-77
2021/07/18 11:27:29;;;;;;;4.18;1.77;;;25.00;99.90;;;;;;5094270;28;20097;-78
2021/07/18 11:29:57;;;;;;;2.65;1.50;;;25.20;99.90;;;;;;5093424;28;20081;-77
2021/07/18 11:32:27;;;;;;;3.90;2.50;;;25.00;99.90;;;;;;5093034;28;20028;-76
2021/07/18 11:34:53;;;;;;;4.47;2.05;;;25.30;99.90;;;;;;5093527;28;20032;-77
2021/07/18 11:37:20;;;;;;;3.90;1.67;;;25.50;99.90;;;;;;5095487;28;20104;-77
2021/07/18 11:39:46;;;;;;;4.05;2.20;;;25.60;99.90;;;;;;5095219;28;20395;-77
2021/07/18 11:42:15;;;;;;;3.42;2.15;;;25.60;99.90;;;;;;5094650;28;20020;-77
2021/07/18 11:44:43;;;;;;;4.28;2.40;;;25.80;99.90;;;;;;5094092;28;20027;-77
2021/07/18 11:47:12;;;;;;;4.20;2.25;;;25.80;99.90;;;;;;5093814;28;20391;-78
2021/07/18 11:49:40;;;;;;;5.53;2.33;;;25.80;99.90;;;;;;5094751;28;20491;-77
2021/07/18 11:52:07;;;;;;;2.95;2.10;;;25.80;99.90;;;;;;5095408;28;20020;-78
2021/07/18 11:54:34;;;;;;;2.50;2.22;;;25.80;99.90;;;;;;5096232;28;20020;-77
2021/07/18 11:57:00;;;;;;;3.03;2.20;;;25.80;99.90;;;;;;5094694;28;20111;-78
2021/07/18 11:59:28;;;;;;;4.65;3.60;;;25.60;99.90;;;;;;5095869;28;20055;-80
2021/07/18 12:01:54;;;;;;;3.25;2.17;;;25.50;99.90;;;;;;5095823;28;20483;-81
2021/07/18 12:04:23;;;;;;;8.25;3.35;;;25.60;99.90;;;;;;5099609;28;20020;-80
2021/07/18 12:06:54;;;;;;;4.60;2.45;;;25.90;99.90;;;;;;5100965;28;20034;-77
2021/07/18 12:09:47;;;;;;;4.88;4.38;;;25.60;99.90;;;;;;5108899;28;20043;-78
2021/07/18 12:12:15;;;;;;;5.25;4.15;;;25.80;99.90;;;;;;5115010;28;20032;-76
2021/07/18 12:14:43;;;;;;;6.35;3.85;;;26.30;99.90;;;;;;5112738;28;20008;-77
2021/07/18 12:17:11;;;;;;;6.03;4.65;;;26.50;99.70;;;;;;5112939;28;20028;-77
2021/07/18 12:19:38;;;;;;;4.93;4.18;;;26.50;99.80;;;;;;5109279;28;20071;-79
2021/07/18 12:22:12;;;;;;;5.63;4.53;;;26.40;99.40;;;;;;5103227;28;20471;-78
2021/07/18 12:24:42;;;;;;;5.57;5.00;;;26.40;98.80;;;;;;5093350;28;20028;-79
2021/07/18 12:27:09;;;;;;;6.13;5.53;;;26.30;99.10;;;;;;5093621;28;20027;-78
2021/07/18 12:29:55;;;;;;;8.40;5.90;;;26.30;98.80;;;;;;5093194;28;20395;-77
2021/07/18 12:32:25;;;;;;;8.32;5.18;;;26.20;99.50;;;;;;5091908;28;20016;-77
2021/07/18 12:34:52;;;;;;;6.20;5.22;;;26.50;99.50;;;;;;5093293;28;20035;-78
2021/07/18 12:37:37;;;;;;;5.65;5.05;;;26.80;99.20;;;;;;5092158;28;20127;-77
2021/07/18 12:40:06;;;;;;;8.13;7.30;;;26.70;99.30;;;;;;5093681;28;20024;-78
2021/07/18 12:42:43;;;;;;;8.52;7.18;;;26.60;98.00;;;;;;5093086;28;20020;-78
2021/07/18 12:45:19;;;;;;;8.10;6.72;;;26.60;98.30;;;;;;5113994;28;20044;-76
2021/07/18 12:47:50;;;;;;;9.98;8.00;;;26.90;97.60;;;;;;5116947;28;20039;-76